createdAt,value
2018-12-31T00:02:26.035Z,4.6
2018-12-31T00:07:26.039Z,4.7
2018-12-31T00:12:26.045Z,4.7
2018-12-31T00:17:26.050Z,4.7
2018-12-31T00:22:26.061Z,4.7
2018-12-31T00:27:26.057Z,4.7
2018-12-31T00:32:26.055Z,4.7
2018-12-31T00:37:26.050Z,4.7
2018-12-31T00:42:26.063Z,4.7
2018-12-31T00:47:26.061Z,4.7
2018-12-31T00:52:26.065Z,4.7
2018-12-31T00:57:26.073Z,4.7
2018-12-31T01:02:26.089Z,4.7
2018-12-31T01:07:26.066Z,4.7
2018-12-31T01:12:26.074Z,4.7
2018-12-31T01:17:26.075Z,4.7
2018-12-31T01:22:26.087Z,4.7
2018-12-31T01:27:26.103Z,4.7
2018-12-31T01:32:26.066Z,4.7
2018-12-31T01:37:26.072Z,4.7
2018-12-31T01:42:26.097Z,4.7
2018-12-31T01:47:26.389Z,4.7
2018-12-31T01:52:26.077Z,4.7
2018-12-31T01:57:26.095Z,4.7
2018-12-31T02:02:26.121Z,4.6
2018-12-31T02:07:26.108Z,4.6
2018-12-31T02:12:26.056Z,4.7
2018-12-31T02:17:26.126Z,4.7
2018-12-31T02:22:26.106Z,4.7
2018-12-31T02:27:26.098Z,4.6
2018-12-31T02:32:26.113Z,4.6
2018-12-31T02:37:26.116Z,4.7
2018-12-31T02:42:26.116Z,4.7
2018-12-31T02:47:26.133Z,4.7
2018-12-31T02:52:26.111Z,4.6
2018-12-31T03:02:26.120Z,4.6
2018-12-31T03:07:26.136Z,4.6
2018-12-31T03:12:26.136Z,4.6
2018-12-31T03:17:26.142Z,4.6
2018-12-31T03:22:26.139Z,4.6
2018-12-31T03:27:26.128Z,4.6
2018-12-31T03:32:26.146Z,4.6
2018-12-31T03:37:26.150Z,4.6
2018-12-31T03:42:26.147Z,4.5
2018-12-31T03:47:26.146Z,4.5
2018-12-31T03:52:26.150Z,4.5
2018-12-31T03:57:26.162Z,4.5
2018-12-31T04:02:26.158Z,4.5
2018-12-31T04:07:26.160Z,4.4
2018-12-31T04:12:26.159Z,4.4
2018-12-31T04:17:26.152Z,4.4
2018-12-31T04:22:26.164Z,4.4
2018-12-31T04:27:26.183Z,4.4
2018-12-31T04:32:26.173Z,4.4
2018-12-31T04:37:26.176Z,4.4
2018-12-31T04:42:26.198Z,4.4
2018-12-31T04:47:26.187Z,4.4
2018-12-31T04:52:26.186Z,4.3
2018-12-31T04:57:26.183Z,4.3
2018-12-31T05:02:26.209Z,4.3
2018-12-31T05:07:26.197Z,4.3
2018-12-31T05:12:26.192Z,4.3
2018-12-31T05:17:26.201Z,4.3
2018-12-31T05:22:26.201Z,4.3
2018-12-31T05:27:26.202Z,4.3
2018-12-31T05:32:26.214Z,4.3
2018-12-31T05:37:26.198Z,4.3
2018-12-31T05:42:26.221Z,4.3
2018-12-31T05:47:26.232Z,4.3
2018-12-31T05:52:26.213Z,4.3
2018-12-31T05:57:26.229Z,4.3
2018-12-31T06:02:26.245Z,4.3
2018-12-31T06:07:26.224Z,4.3
2018-12-31T06:12:26.237Z,4.3
2018-12-31T06:17:26.234Z,4.3
2018-12-31T06:22:26.244Z,4.3
2018-12-31T06:27:26.246Z,4.3
2018-12-31T06:32:26.228Z,4.3
2018-12-31T06:37:26.265Z,4.2
2018-12-31T06:42:26.256Z,4.3
2018-12-31T06:47:26.283Z,4.3
2018-12-31T06:52:26.247Z,4.2
2018-12-31T06:57:26.258Z,4.3
2018-12-31T07:02:26.258Z,4.2
2018-12-31T07:07:26.260Z,4.2
2018-12-31T07:12:26.284Z,4.2
2018-12-31T07:17:26.272Z,4.2
2018-12-31T07:22:26.282Z,4.2
2018-12-31T07:27:26.263Z,4.2
2018-12-31T07:32:26.295Z,4.1
2018-12-31T07:37:26.278Z,4.1
2018-12-31T07:42:26.279Z,4.1
2018-12-31T07:47:26.286Z,4.1
2018-12-31T07:52:26.287Z,4.1
2018-12-31T07:57:26.290Z,4.1
2018-12-31T08:02:26.300Z,4
2018-12-31T08:07:26.312Z,4
2018-12-31T08:12:26.283Z,4
2018-12-31T08:17:26.543Z,4
2018-12-31T08:22:26.308Z,4
2018-12-31T08:27:26.313Z,3.9
2018-12-31T08:32:26.296Z,3.9
2018-12-31T08:37:26.321Z,4
2018-12-31T08:42:26.328Z,3.9
2018-12-31T08:47:26.310Z,3.9
2018-12-31T08:52:26.314Z,4
2018-12-31T08:57:26.326Z,4
2018-12-31T09:02:26.317Z,4
2018-12-31T09:07:26.320Z,4
2018-12-31T09:12:26.320Z,4
2018-12-31T09:17:26.319Z,4
2018-12-31T09:22:26.325Z,4
2018-12-31T09:27:26.343Z,3.9
2018-12-31T09:32:26.333Z,4
2018-12-31T09:37:26.357Z,4
2018-12-31T09:42:26.467Z,4
2018-12-31T09:47:26.337Z,4
2018-12-31T09:52:26.353Z,4
2018-12-31T09:57:26.344Z,4
2018-12-31T10:02:26.348Z,4.1
2018-12-31T10:07:26.374Z,4
2018-12-31T10:12:26.676Z,4
2018-12-31T10:17:26.364Z,4
2018-12-31T10:22:26.355Z,4.1
2018-12-31T10:27:26.393Z,4
2018-12-31T10:32:26.375Z,4.1
2018-12-31T10:37:26.374Z,4.1
2018-12-31T10:42:26.368Z,4.1
2018-12-31T10:47:26.383Z,4.1
2018-12-31T10:52:26.403Z,4.2
2018-12-31T10:57:26.389Z,4.2
2018-12-31T11:02:26.389Z,4.2
2018-12-31T11:07:26.383Z,4.2
2018-12-31T11:12:26.389Z,4.2
2018-12-31T11:17:26.397Z,4.2
2018-12-31T11:22:26.414Z,4.3
2018-12-31T11:27:26.389Z,4.2
2018-12-31T11:32:26.435Z,4.2
2018-12-31T11:37:26.367Z,4.2
2018-12-31T11:42:26.385Z,4.2
2018-12-31T11:47:26.419Z,4.2
2018-12-31T11:52:26.422Z,4.3
2018-12-31T11:57:26.425Z,4.3
2018-12-31T12:02:26.421Z,4.3
2018-12-31T12:07:26.426Z,4.2
2018-12-31T12:12:29.354Z,4.3
2018-12-31T12:17:26.430Z,4.3
2018-12-31T12:22:26.435Z,4.2
2018-12-31T12:27:26.443Z,4.2
2018-12-31T12:32:26.392Z,4.3
2018-12-31T12:37:26.445Z,4.2
2018-12-31T12:42:26.435Z,4.3
2018-12-31T12:47:26.453Z,4.3
2018-12-31T12:52:26.456Z,4.3
2018-12-31T12:57:26.463Z,4.3
2018-12-31T13:02:26.492Z,4.2
2018-12-31T13:07:26.470Z,4.3
2018-12-31T13:12:26.490Z,4.2
2018-12-31T13:17:26.467Z,4.2
2018-12-31T13:22:26.417Z,4.1
2018-12-31T13:27:26.475Z,4.1
2018-12-31T13:32:26.519Z,4.1
2018-12-31T13:37:26.558Z,4
2018-12-31T13:42:26.480Z,4
2018-12-31T13:47:26.464Z,4
2018-12-31T13:52:26.488Z,3.9
2018-12-31T13:57:26.510Z,3.9
2018-12-31T14:02:26.495Z,3.9
2018-12-31T14:07:26.524Z,3.9
2018-12-31T14:12:26.482Z,3.9
2018-12-31T14:17:26.489Z,3.9
2018-12-31T14:22:26.519Z,3.9
2018-12-31T14:27:26.500Z,3.9
2018-12-31T14:32:26.498Z,3.9
2018-12-31T14:37:26.650Z,3.8
2018-12-31T14:42:26.506Z,3.9
2018-12-31T14:47:26.539Z,3.9
2018-12-31T14:52:26.516Z,3.8
2018-12-31T14:57:26.538Z,3.8
2018-12-31T15:02:26.533Z,3.8
2018-12-31T15:07:26.548Z,3.8
2018-12-31T15:12:26.586Z,3.8
2018-12-31T15:17:26.728Z,3.8
2018-12-31T15:22:29.150Z,3.8
2018-12-31T15:27:26.502Z,3.8
2018-12-31T15:32:26.547Z,3.8
2018-12-31T15:37:26.539Z,3.8
2018-12-31T15:42:26.539Z,3.8
2018-12-31T15:47:26.556Z,3.8
2018-12-31T15:52:26.547Z,3.8
2018-12-31T15:57:26.576Z,3.8
2018-12-31T16:02:26.881Z,3.8
2018-12-31T16:07:26.584Z,3.8
2018-12-31T16:12:26.581Z,3.8
2018-12-31T16:17:27.968Z,3.8
2018-12-31T16:22:27.987Z,3.8
2018-12-31T16:27:27.978Z,3.8
2018-12-31T16:32:28.049Z,3.8
2018-12-31T16:37:27.998Z,3.8
2018-12-31T16:42:28.005Z,3.8
2018-12-31T16:47:28.010Z,3.8
2018-12-31T16:52:28.023Z,3.8
2018-12-31T16:57:28.008Z,3.8
2018-12-31T17:02:27.998Z,3.8
2018-12-31T17:07:28.662Z,3.8
2018-12-31T17:12:28.035Z,3.9
2018-12-31T17:17:28.005Z,3.9
2018-12-31T17:22:28.000Z,3.9
2018-12-31T17:27:28.099Z,3.9
2018-12-31T17:32:28.027Z,3.9
2018-12-31T17:37:28.014Z,3.8
2018-12-31T17:42:28.025Z,3.8
2018-12-31T17:47:27.982Z,3.8
2018-12-31T17:52:28.028Z,3.9
2018-12-31T17:57:28.002Z,3.8
2018-12-31T18:02:28.033Z,3.8
2018-12-31T18:07:28.036Z,3.8
2018-12-31T18:12:28.051Z,3.8
2018-12-31T18:17:28.046Z,3.8
2018-12-31T18:22:28.033Z,3.8
2018-12-31T18:27:28.053Z,3.8
2018-12-31T18:32:28.056Z,3.9
2018-12-31T18:37:28.064Z,3.9
2018-12-31T18:42:28.047Z,3.9
2018-12-31T18:47:28.062Z,3.9
2018-12-31T18:52:28.058Z,3.9
2018-12-31T18:57:28.074Z,3.9
2018-12-31T19:02:28.114Z,3.9
2018-12-31T19:07:28.180Z,3.9
2018-12-31T19:12:28.073Z,3.9
2018-12-31T19:17:28.061Z,4
2018-12-31T19:22:28.082Z,4
2018-12-31T19:27:28.083Z,3.9
2018-12-31T19:32:28.071Z,4
2018-12-31T19:37:29.839Z,4
2018-12-31T19:42:28.103Z,4
2018-12-31T19:47:28.085Z,4
2018-12-31T19:52:28.067Z,4
2018-12-31T19:57:28.171Z,4
2018-12-31T20:02:28.092Z,4
2018-12-31T20:07:28.111Z,4
2018-12-31T20:12:28.091Z,4
2018-12-31T20:17:28.100Z,4
2018-12-31T20:22:28.114Z,4
2018-12-31T20:27:28.113Z,4
2018-12-31T20:32:28.116Z,4
2018-12-31T20:37:28.119Z,4.1
2018-12-31T20:42:28.284Z,4.1
2018-12-31T20:47:28.124Z,4.1
2018-12-31T20:52:28.116Z,4.1
2018-12-31T20:57:28.130Z,4.1
2018-12-31T21:02:28.276Z,4.1
2018-12-31T21:07:28.150Z,4.2
2018-12-31T21:12:28.121Z,4.2
2018-12-31T21:17:28.136Z,4.2
2018-12-31T21:22:28.136Z,4.2
2018-12-31T21:27:28.136Z,4.2
2018-12-31T21:32:28.361Z,4.2
2018-12-31T21:37:28.150Z,4.3
2018-12-31T21:42:28.151Z,4.3
2018-12-31T21:47:28.186Z,4.3
2018-12-31T21:52:28.465Z,4.3
2018-12-31T21:57:28.566Z,4.3
2018-12-31T22:02:28.111Z,4.4
2018-12-31T22:07:28.601Z,4.4
2018-12-31T22:12:28.166Z,4.4
2018-12-31T22:17:28.143Z,4.4
2018-12-31T22:22:28.176Z,4.5
2018-12-31T22:27:28.171Z,4.5
2018-12-31T22:32:28.183Z,4.5
2018-12-31T22:37:28.178Z,4.5
2018-12-31T22:42:28.190Z,4.5
2018-12-31T22:47:28.204Z,4.5
2018-12-31T22:52:28.144Z,4.5
2018-12-31T22:57:28.211Z,4.6
2018-12-31T23:02:28.198Z,4.6
2018-12-31T23:07:28.194Z,4.6
2018-12-31T23:12:28.211Z,4.6
2018-12-31T23:17:28.197Z,4.6
2018-12-31T23:22:28.193Z,4.6
2018-12-31T23:27:28.215Z,4.7
2018-12-31T23:32:28.209Z,4.7
2018-12-31T23:37:28.195Z,4.7
2018-12-31T23:42:28.220Z,4.7
2018-12-31T23:47:28.225Z,4.7
2018-12-31T23:52:28.263Z,4.8
2018-12-31T23:57:28.222Z,4.8
